Time;durP1;ratioP1;P1;durP2;ratioP2;P2;SDS_P1;SDS_P2;PMS_P1;PMS_P2;Temp;Humidity;BMP_temperature;BMP_pressure;BME280_temperature;BME280_humidity;BME280_pressure;Samples;Min_cycle;Max_cycle;Signal;HPM_P1;HPM_P2
2022/07/10 00:01:05;;;;;;;1.30;0.80;;;25.50;66.20;;;;;;5094701;28;20531;-81
2022/07/10 00:03:32;;;;;;;1.00;0.90;;;25.50;66.20;;;;;;5094558;28;20507;-80
2022/07/10 00:05:59;;;;;;;1.30;0.90;;;25.40;67.00;;;;;;5094577;28;20523;-81
2022/07/10 00:08:26;;;;;;;1.20;0.90;;;25.40;66.20;;;;;;5094268;28;20475;-81
2022/07/10 00:10:53;;;;;;;1.10;0.90;;;25.50;66.20;;;;;;5094254;28;20868;-80
2022/07/10 00:13:20;;;;;;;1.00;0.70;;;25.50;66.20;;;;;;5094292;28;20935;-81
2022/07/10 00:15:46;;;;;;;1.37;0.93;;;25.50;66.20;;;;;;5094222;28;20863;-91
2022/07/10 00:18:15;;;;;;;1.10;0.90;;;25.50;66.20;;;;;;5094132;28;20432;-80
2022/07/10 00:20:41;;;;;;;1.03;0.70;;;25.50;66.20;;;;;;5094550;28;20467;-81
2022/07/10 00:23:08;;;;;;;1.00;0.77;;;25.50;66.20;;;;;;5094848;28;20963;-82
2022/07/10 00:25:35;;;;;;;1.00;0.90;;;25.50;66.10;;;;;;5095910;28;20875;-81
2022/07/10 00:28:02;;;;;;;0.90;0.60;;;25.50;66.10;;;;;;5093816;28;20994;-81
2022/07/10 00:30:29;;;;;;;1.20;0.80;;;25.50;66.10;;;;;;5093482;28;20969;-81
2022/07/10 00:32:56;;;;;;;1.00;0.80;;;25.50;66.20;;;;;;5093685;28;20526;-82
2022/07/10 00:35:24;;;;;;;1.00;0.80;;;25.50;66.20;;;;;;5093636;28;20482;-81
2022/07/10 00:37:51;;;;;;;0.90;0.70;;;25.50;66.10;;;;;;5093884;28;20521;-81
2022/07/10 00:40:19;;;;;;;1.00;0.80;;;25.50;66.10;;;;;;5093944;28;20463;-81
2022/07/10 00:42:46;;;;;;;1.00;0.80;;;25.50;66.10;;;;;;5093606;28;20483;-81
2022/07/10 00:45:13;;;;;;;1.00;0.70;;;25.40;66.00;;;;;;5093494;28;20484;-80
2022/07/10 00:47:40;;;;;;;1.00;0.80;;;25.50;66.10;;;;;;5093530;28;20934;-81
2022/07/10 00:50:08;;;;;;;1.00;0.80;;;25.50;66.10;;;;;;5093508;28;20529;-81
2022/07/10 00:52:38;;;;;;;1.00;0.80;;;25.50;66.10;;;;;;5093420;28;20436;-88
2022/07/10 00:55:06;;;;;;;1.00;0.80;;;25.40;66.00;;;;;;5093555;28;20439;-89
2022/07/10 00:57:34;;;;;;;1.03;0.80;;;25.40;66.00;;;;;;5093370;28;20498;-81
2022/07/10 01:00:01;;;;;;;1.00;0.80;;;25.40;66.00;;;;;;5093399;28;21070;-81
2022/07/10 01:02:28;;;;;;;1.10;0.80;;;25.40;65.90;;;;;;5093221;28;20932;-80
2022/07/10 01:04:57;;;;;;;1.57;1.07;;;25.40;66.00;;;;;;5093228;28;20505;-80
2022/07/10 01:07:25;;;;;;;0.90;0.70;;;25.50;66.10;;;;;;5093062;28;20539;-81
2022/07/10 01:09:53;;;;;;;1.00;0.87;;;25.50;66.10;;;;;;5093370;28;20435;-81
2022/07/10 01:12:22;;;;;;;1.57;0.90;;;25.50;66.00;;;;;;5093331;28;20520;-81
2022/07/10 01:14:49;;;;;;;1.00;0.80;;;25.50;66.00;;;;;;5093424;28;20577;-82
2022/07/10 01:17:17;;;;;;;0.90;0.67;;;25.50;66.00;;;;;;5093525;28;20581;-81
2022/07/10 01:19:44;;;;;;;1.07;0.80;;;25.40;65.90;;;;;;5092958;28;20443;-81
2022/07/10 01:22:12;;;;;;;0.90;0.60;;;25.40;66.00;;;;;;5093319;28;20551;-81
2022/07/10 01:24:39;;;;;;;1.20;0.80;;;25.40;65.90;;;;;;5093113;28;20476;-83
2022/07/10 01:27:07;;;;;;;1.00;0.80;;;25.40;65.90;;;;;;5093113;28;20490;-81
2022/07/10 01:29:36;;;;;;;0.90;0.70;;;25.40;66.00;;;;;;5093157;28;20439;-91
2022/07/10 01:32:03;;;;;;;1.20;0.80;;;25.40;66.00;;;;;;5093145;28;20440;-81
2022/07/10 01:34:30;;;;;;;1.00;0.77;;;25.40;65.90;;;;;;5093016;28;20523;-81
2022/07/10 01:36:57;;;;;;;1.10;0.80;;;25.40;65.90;;;;;;5093116;28;20982;-81
2022/07/10 01:39:25;;;;;;;1.63;0.80;;;25.40;65.90;;;;;;5093116;28;20440;-80
2022/07/10 01:41:52;;;;;;;0.90;0.63;;;25.40;65.90;;;;;;5094010;28;20531;-80
2022/07/10 01:44:19;;;;;;;2.40;1.00;;;25.40;65.90;;;;;;5096790;28;20530;-80
2022/07/10 01:46:46;;;;;;;1.00;0.80;;;25.40;65.90;;;;;;5096869;28;20528;-80
2022/07/10 01:49:13;;;;;;;0.90;0.70;;;25.40;65.90;;;;;;5096869;28;20473;-80
2022/07/10 01:51:40;;;;;;;1.00;0.70;;;25.40;65.90;;;;;;5096982;28;21001;-81
2022/07/10 01:54:07;;;;;;;1.00;0.80;;;25.40;65.90;;;;;;5096777;28;20446;-86
2022/07/10 01:56:35;;;;;;;1.00;0.70;;;25.40;65.90;;;;;;5096696;28;20471;-81
2022/07/10 01:59:03;;;;;;;0.90;0.60;;;25.40;65.90;;;;;;5096361;28;20483;-81
2022/07/10 02:01:30;;;;;;;0.90;0.80;;;25.40;65.80;;;;;;5096634;28;20930;-80
2022/07/10 02:06:43;;;;;;;1.00;0.70;;;25.40;65.90;;;;;;5078581;28;20431;-80
2022/07/10 02:09:11;;;;;;;1.00;0.70;;;25.40;66.00;;;;;;5096578;28;20482;-81
2022/07/10 02:11:39;;;;;;;0.90;0.70;;;25.40;65.90;;;;;;5096479;28;20485;-90
2022/07/10 02:14:06;;;;;;;1.10;0.90;;;25.40;65.90;;;;;;5096341;28;20799;-81
2022/07/10 02:16:35;;;;;;;0.93;0.77;;;25.40;65.90;;;;;;5096405;28;20470;-81
2022/07/10 02:19:02;;;;;;;1.00;0.90;;;25.40;65.90;;;;;;5096372;28;20527;-81
2022/07/10 02:21:29;;;;;;;1.10;0.70;;;25.40;65.90;;;;;;5096061;28;20451;-81
2022/07/10 02:23:56;;;;;;;1.93;0.80;;;25.40;65.90;;;;;;5095955;28;20875;-81
2022/07/10 02:26:23;;;;;;;1.20;0.87;;;25.40;65.80;;;;;;5096188;28;20443;-81
2022/07/10 02:28:51;;;;;;;1.00;0.70;;;25.40;65.90;;;;;;5096071;28;20483;-81
2022/07/10 02:31:18;;;;;;;0.90;0.70;;;25.40;65.90;;;;;;5095947;28;20439;-81
2022/07/10 02:33:45;;;;;;;1.10;0.80;;;25.40;65.90;;;;;;5096025;28;21068;-81
2022/07/10 02:36:11;;;;;;;0.90;0.70;;;25.40;65.90;;;;;;5095912;28;20440;-81
2022/07/10 02:38:38;;;;;;;1.00;0.70;;;25.40;65.90;;;;;;5095931;28;20522;-81
2022/07/10 02:41:05;;;;;;;0.93;0.70;;;25.40;65.90;;;;;;5095930;28;20857;-81
2022/07/10 02:43:32;;;;;;;0.90;0.70;;;25.40;65.90;;;;;;5095788;28;20942;-81
2022/07/10 02:46:01;;;;;;;1.10;0.80;;;25.40;65.90;;;;;;5095614;28;20571;-81
2022/07/10 02:48:28;;;;;;;1.10;0.80;;;25.40;65.90;;;;;;5095763;28;20539;-80
2022/07/10 02:50:55;;;;;;;1.00;0.80;;;25.40;65.90;;;;;;5095755;28;21006;-81
2022/07/10 02:53:22;;;;;;;0.90;0.67;;;25.40;65.90;;;;;;5095230;28;20438;-81
2022/07/10 02:55:49;;;;;;;0.90;0.63;;;25.40;65.90;;;;;;5095695;28;20451;-81
2022/07/10 02:58:17;;;;;;;0.90;0.70;;;25.40;65.90;;;;;;5095396;28;20554;-81
2022/07/10 03:00:44;;;;;;;1.00;0.80;;;25.40;65.80;;;;;;5095193;28;20475;-80
2022/07/10 03:03:12;;;;;;;0.90;0.70;;;25.40;65.90;;;;;;5095328;28;20527;-81
2022/07/10 03:05:39;;;;;;;1.10;0.80;;;25.40;65.90;;;;;;5095312;28;20629;-81
2022/07/10 03:08:06;;;;;;;1.00;0.80;;;25.40;65.90;;;;;;5095397;28;20450;-81
2022/07/10 03:10:33;;;;;;;1.10;0.80;;;25.40;65.90;;;;;;5095336;28;20535;-81
2022/07/10 03:13:00;;;;;;;0.93;0.73;;;25.40;65.90;;;;;;5095256;28;20471;-81
2022/07/10 03:15:26;;;;;;;1.00;0.73;;;25.40;65.90;;;;;;5095224;28;20513;-91
2022/07/10 03:17:53;;;;;;;1.30;0.80;;;25.40;65.80;;;;;;5095269;28;20545;-81
2022/07/10 03:20:21;;;;;;;1.20;0.80;;;25.40;65.80;;;;;;5094898;28;20436;-81
2022/07/10 03:22:48;;;;;;;0.90;0.60;;;25.40;65.80;;;;;;5095107;28;20444;-81
2022/07/10 03:25:15;;;;;;;1.00;0.70;;;25.40;65.80;;;;;;5094898;28;21097;-81
2022/07/10 03:27:42;;;;;;;1.20;0.80;;;25.40;65.80;;;;;;5094972;28;20459;-81
2022/07/10 03:30:11;;;;;;;0.90;0.70;;;25.40;65.90;;;;;;5094969;28;20428;-81
2022/07/10 03:32:38;;;;;;;1.10;0.70;;;25.40;65.80;;;;;;5094789;28;20467;-81
2022/07/10 03:35:05;;;;;;;1.00;0.80;;;25.40;65.80;;;;;;5094818;28;20539;-81
2022/07/10 03:37:33;;;;;;;0.87;0.60;;;25.40;65.80;;;;;;5094798;28;20816;-81
2022/07/10 03:40:00;;;;;;;1.10;0.70;;;25.40;65.80;;;;;;5094571;28;20436;-81
2022/07/10 03:42:27;;;;;;;1.00;0.70;;;25.40;65.80;;;;;;5094574;28;20530;-81
2022/07/10 03:44:54;;;;;;;0.97;0.77;;;25.40;65.80;;;;;;5094729;28;20511;-81
2022/07/10 03:47:21;;;;;;;0.90;0.67;;;25.40;65.80;;;;;;5094508;28;20467;-81
2022/07/10 03:49:47;;;;;;;0.90;0.73;;;25.40;65.80;;;;;;5094700;28;20879;-81
2022/07/10 03:52:14;;;;;;;1.10;0.73;;;25.40;65.80;;;;;;5094341;28;20440;-81
2022/07/10 03:54:42;;;;;;;0.90;0.73;;;25.40;65.80;;;;;;5094411;28;20471;-81
2022/07/10 03:59:53;;;;;;;1.10;0.90;;;25.40;65.80;;;;;;5094260;28;20600;-81
2022/07/10 04:02:20;;;;;;;1.00;0.70;;;25.30;65.80;;;;;;5094113;28;20983;-81
2022/07/10 04:04:47;;;;;;;1.30;0.70;;;25.30;65.80;;;;;;5093456;28;20563;-90
2022/07/10 04:07:14;;;;;;;1.13;0.90;;;25.40;65.80;;;;;;5094192;28;20526;-80
2022/07/10 04:09:42;;;;;;;1.53;0.90;;;25.40;65.80;;;;;;5094151;28;20472;-81
2022/07/10 04:12:09;;;;;;;1.20;0.77;;;25.40;65.70;;;;;;5094133;28;20523;-81
2022/07/10 04:14:36;;;;;;;0.90;0.70;;;25.30;65.70;;;;;;5094063;28;20436;-81
2022/07/10 04:17:03;;;;;;;1.00;0.80;;;25.30;65.70;;;;;;5094176;28;20448;-84
2022/07/10 04:19:30;;;;;;;1.00;0.70;;;25.40;65.80;;;;;;5093938;28;20531;-81
2022/07/10 04:21:57;;;;;;;1.07;0.80;;;25.40;65.70;;;;;;5093904;28;20520;-81
2022/07/10 04:24:24;;;;;;;1.13;0.70;;;25.40;65.80;;;;;;5093843;28;20440;-81
2022/07/10 04:26:52;;;;;;;1.43;0.80;;;25.30;65.70;;;;;;5093726;28;21057;-81
2022/07/10 04:29:19;;;;;;;1.20;0.80;;;25.30;65.70;;;;;;5093849;28;20486;-81
2022/07/10 04:31:46;;;;;;;1.00;0.70;;;25.30;65.70;;;;;;5093781;28;20985;-81
2022/07/10 04:34:13;;;;;;;1.00;0.63;;;25.30;65.70;;;;;;5093773;28;20808;-81
2022/07/10 04:36:39;;;;;;;0.90;0.70;;;25.30;65.70;;;;;;5093761;28;20550;-85
2022/07/10 04:39:06;;;;;;;0.90;0.70;;;25.40;65.70;;;;;;5093621;28;20930;-81
2022/07/10 04:41:33;;;;;;;1.83;0.80;;;25.40;65.70;;;;;;5093585;28;20606;-82
2022/07/10 04:44:01;;;;;;;1.20;0.80;;;25.30;65.70;;;;;;5093651;28;20532;-81
2022/07/10 04:46:28;;;;;;;0.90;0.80;;;25.30;65.70;;;;;;5093485;28;20570;-81
2022/07/10 04:48:55;;;;;;;0.97;0.70;;;25.30;65.70;;;;;;5093597;28;20440;-81
2022/07/10 04:51:23;;;;;;;0.90;0.63;;;25.30;65.70;;;;;;5093538;28;20531;-90
2022/07/10 04:53:50;;;;;;;1.00;0.73;;;25.30;65.70;;;;;;5093395;28;20444;-81
2022/07/10 04:56:17;;;;;;;1.77;0.90;;;25.30;65.70;;;;;;5093368;28;20505;-81
2022/07/10 04:58:44;;;;;;;1.73;1.10;;;25.30;65.70;;;;;;5093200;28;20555;-81
2022/07/10 05:01:12;;;;;;;1.20;0.90;;;25.30;65.70;;;;;;5093515;28;20512;-81
2022/07/10 05:03:39;;;;;;;1.00;0.80;;;25.30;65.70;;;;;;5093434;28;20442;-90
2022/07/10 05:06:06;;;;;;;0.90;0.67;;;25.30;65.70;;;;;;5093243;28;20626;-81
2022/07/10 05:08:32;;;;;;;1.23;0.90;;;25.30;65.70;;;;;;5093336;28;20444;-81
2022/07/10 05:10:59;;;;;;;1.00;0.70;;;25.30;66.40;;;;;;5093362;28;20497;-81
2022/07/10 05:13:26;;;;;;;1.00;0.77;;;25.30;65.60;;;;;;5093306;28;20512;-81
2022/07/10 05:15:53;;;;;;;1.10;0.80;;;25.30;65.60;;;;;;5094174;28;20435;-81
2022/07/10 05:18:21;;;;;;;1.00;0.80;;;25.30;65.60;;;;;;5097634;28;21018;-80
2022/07/10 05:20:49;;;;;;;1.20;0.73;;;25.30;65.60;;;;;;5097365;28;20514;-81
2022/07/10 05:23:16;;;;;;;1.00;0.80;;;25.30;66.50;;;;;;5097396;28;20458;-81
2022/07/10 05:25:43;;;;;;;1.00;0.70;;;25.30;65.60;;;;;;5097304;28;20471;-81
2022/07/10 05:28:12;;;;;;;1.20;1.00;;;25.30;65.60;;;;;;5097332;28;20551;-81
2022/07/10 05:30:39;;;;;;;1.07;0.83;;;25.30;65.60;;;;;;5097200;28;20795;-81
2022/07/10 05:33:06;;;;;;;1.17;0.73;;;25.30;65.60;;;;;;5097248;28;20432;-81
2022/07/10 05:35:35;;;;;;;1.03;0.77;;;25.30;65.60;;;;;;5097117;28;20543;-81
2022/07/10 05:38:01;;;;;;;0.97;0.73;;;25.30;65.60;;;;;;5097129;28;20526;-81
2022/07/10 05:40:28;;;;;;;0.90;0.70;;;25.30;65.60;;;;;;5096932;28;20978;-81
2022/07/10 05:42:55;;;;;;;1.10;0.80;;;25.30;65.60;;;;;;5097549;28;20531;-80
2022/07/10 05:45:22;;;;;;;1.60;0.83;;;25.30;65.60;;;;;;5096831;28;20479;-81
2022/07/10 05:47:49;;;;;;;0.90;0.70;;;25.30;65.60;;;;;;5096856;28;20475;-80
2022/07/10 05:50:16;;;;;;;0.90;0.80;;;25.30;65.60;;;;;;5096897;28;20534;-81
2022/07/10 05:52:44;;;;;;;1.00;0.70;;;25.20;65.50;;;;;;5096855;28;20538;-81
2022/07/10 05:55:11;;;;;;;1.20;0.80;;;25.30;65.50;;;;;;5096651;28;21026;-81
2022/07/10 05:57:38;;;;;;;1.03;0.90;;;25.30;65.60;;;;;;5096674;28;20459;-81
2022/07/10 06:00:06;;;;;;;0.90;0.70;;;25.30;65.50;;;;;;5096435;28;20554;-81
2022/07/10 06:02:33;;;;;;;1.10;0.90;;;25.30;65.50;;;;;;5096509;28;20490;-89
2022/07/10 06:05:00;;;;;;;1.00;0.80;;;25.30;65.50;;;;;;5096600;28;20531;-81
2022/07/10 06:07:27;;;;;;;1.00;0.80;;;25.30;65.60;;;;;;5096399;28;20570;-81
2022/07/10 06:09:56;;;;;;;1.20;0.90;;;25.30;65.50;;;;;;5096539;28;20962;-88
2022/07/10 06:12:23;;;;;;;1.10;0.80;;;25.30;65.50;;;;;;5096343;28;20436;-81
2022/07/10 06:14:50;;;;;;;1.00;0.60;;;25.30;65.60;;;;;;5096531;28;20526;-80
2022/07/10 06:17:16;;;;;;;1.00;0.70;;;25.30;65.50;;;;;;5096461;28;20439;-81
2022/07/10 06:19:43;;;;;;;1.10;0.70;;;25.30;65.60;;;;;;5096165;28;20478;-81
2022/07/10 06:24:55;;;;;;;1.00;0.80;;;25.30;65.60;;;;;;5088901;28;20428;-81
2022/07/10 06:27:22;;;;;;;0.97;0.60;;;25.30;65.60;;;;;;5095187;28;20526;-81
2022/07/10 06:29:49;;;;;;;0.90;0.70;;;25.30;65.60;;;;;;5096231;28;20526;-80
2022/07/10 06:32:16;;;;;;;0.90;0.70;;;25.30;65.60;;;;;;5095901;28;20480;-90
2022/07/10 06:34:43;;;;;;;0.90;0.70;;;25.30;65.60;;;;;;5096084;28;20443;-81
2022/07/10 06:37:10;;;;;;;0.90;0.70;;;25.30;65.60;;;;;;5095951;28;20523;-80
2022/07/10 06:39:37;;;;;;;0.90;0.70;;;25.30;65.60;;;;;;5095879;28;20436;-80
2022/07/10 06:42:06;;;;;;;1.00;0.80;;;25.20;65.50;;;;;;5095795;28;20854;-80
2022/07/10 06:44:33;;;;;;;1.40;0.73;;;25.20;65.50;;;;;;5095930;28;20434;-81
2022/07/10 06:49:46;;;;;;;1.10;0.73;;;25.20;65.50;;;;;;5095958;28;20489;-81
2022/07/10 06:52:13;;;;;;;1.00;0.70;;;25.30;65.60;;;;;;5095750;28;20432;-81
2022/07/10 06:54:40;;;;;;;0.90;0.67;;;25.20;65.50;;;;;;5095686;28;21042;-90
2022/07/10 06:57:09;;;;;;;1.40;0.80;;;25.20;65.50;;;;;;5095498;28;20456;-81
2022/07/10 06:59:35;;;;;;;1.00;0.80;;;25.30;65.60;;;;;;5095181;28;20478;-81
2022/07/10 07:02:03;;;;;;;0.90;0.70;;;25.20;65.40;;;;;;5095538;28;20436;-81
2022/07/10 07:04:30;;;;;;;1.40;0.80;;;25.30;65.60;;;;;;5095439;28;20530;-81
2022/07/10 07:06:56;;;;;;;0.97;0.70;;;25.20;65.40;;;;;;5095361;28;20545;-81
2022/07/10 07:09:23;;;;;;;1.00;0.70;;;25.20;65.40;;;;;;5095278;28;20858;-81
2022/07/10 07:11:50;;;;;;;1.10;0.70;;;25.30;65.50;;;;;;5095335;28;21006;-81
2022/07/10 07:14:18;;;;;;;1.20;1.00;;;25.20;65.40;;;;;;5095290;28;20471;-81
2022/07/10 07:16:56;;;;;;;1.10;0.77;;;25.20;65.40;;;;;;5095247;28;20472;-81
2022/07/10 07:19:30;;;;;;;1.10;0.70;;;25.20;65.50;;;;;;5095223;28;20436;-81
2022/07/10 07:24:41;;;;;;;1.10;0.83;;;25.20;66.40;;;;;;5095074;28;21077;-81
2022/07/10 07:27:08;;;;;;;1.20;0.73;;;25.20;65.60;;;;;;5094816;28;20571;-81
2022/07/10 07:29:37;;;;;;;1.20;0.83;;;25.20;65.50;;;;;;5095010;28;20493;-81
2022/07/10 07:32:04;;;;;;;1.00;0.60;;;25.20;65.50;;;;;;5094916;28;20538;-81
2022/07/10 07:34:31;;;;;;;0.90;0.70;;;25.20;65.50;;;;;;5094898;28;20435;-81
2022/07/10 07:36:58;;;;;;;1.00;0.70;;;25.20;65.50;;;;;;5094676;28;20479;-81
2022/07/10 07:39:25;;;;;;;0.90;0.70;;;25.20;65.50;;;;;;5093662;28;20486;-81
2022/07/10 07:41:52;;;;;;;1.90;0.80;;;25.20;65.50;;;;;;5094548;28;20464;-81
2022/07/10 07:44:19;;;;;;;1.23;0.80;;;25.20;65.50;;;;;;5094638;28;20522;-81
2022/07/10 07:46:47;;;;;;;1.10;0.60;;;25.20;65.50;;;;;;5094501;28;20505;-81
2022/07/10 07:49:14;;;;;;;1.07;0.80;;;25.20;65.60;;;;;;5094540;28;20478;-90
2022/07/10 07:51:41;;;;;;;1.10;0.80;;;25.20;65.50;;;;;;5094516;28;20471;-81
2022/07/10 07:54:07;;;;;;;1.00;0.77;;;25.20;65.50;;;;;;5094836;28;20443;-81
2022/07/10 07:56:34;;;;;;;0.97;0.70;;;25.20;65.50;;;;;;5094581;28;20794;-81
2022/07/10 07:59:01;;;;;;;1.00;0.70;;;25.20;65.50;;;;;;5094136;28;20899;-81
2022/07/10 08:01:28;;;;;;;1.10;0.90;;;25.20;65.50;;;;;;5094304;28;20567;-81
2022/07/10 08:03:56;;;;;;;0.90;0.63;;;25.20;65.60;;;;;;5094317;28;20464;-80
2022/07/10 08:06:23;;;;;;;1.40;0.77;;;25.20;65.50;;;;;;5094198;28;20476;-80
2022/07/10 08:08:50;;;;;;;1.10;0.70;;;25.20;65.50;;;;;;5094397;28;20523;-80
2022/07/10 08:11:17;;;;;;;1.10;0.80;;;25.20;65.50;;;;;;5094234;28;20462;-80
2022/07/10 08:13:44;;;;;;;1.10;0.80;;;25.20;65.50;;;;;;5094144;28;20440;-80
2022/07/10 08:16:11;;;;;;;1.00;0.70;;;25.20;65.50;;;;;;5094072;28;20505;-80
2022/07/10 08:18:38;;;;;;;1.00;0.80;;;25.20;65.50;;;;;;5093995;28;20526;-80
2022/07/10 08:21:06;;;;;;;1.00;0.70;;;25.20;65.50;;;;;;5094066;28;20436;-88
2022/07/10 08:23:33;;;;;;;1.03;0.90;;;25.20;65.50;;;;;;5094115;28;20476;-81
2022/07/10 08:26:00;;;;;;;1.00;0.70;;;25.20;65.50;;;;;;5093963;28;20468;-80
2022/07/10 08:28:27;;;;;;;1.00;0.70;;;25.20;65.40;;;;;;5094088;28;21027;-81
2022/07/10 08:30:54;;;;;;;1.17;0.80;;;25.20;65.50;;;;;;5093988;28;20436;-80
2022/07/10 08:33:21;;;;;;;1.70;0.80;;;25.20;65.50;;;;;;5094111;28;20448;-81
2022/07/10 08:35:48;;;;;;;0.80;0.60;;;25.20;65.50;;;;;;5097827;28;20436;-81
2022/07/10 08:38:16;;;;;;;1.00;0.70;;;25.20;65.60;;;;;;5099843;28;20891;-87
2022/07/10 08:40:45;;;;;;;1.50;0.70;;;25.20;65.50;;;;;;5097938;28;20527;-80
2022/07/10 08:43:12;;;;;;;0.90;0.60;;;25.20;65.50;;;;;;5095969;28;20832;-89
2022/07/10 08:45:42;;;;;;;1.30;0.70;;;25.20;65.50;;;;;;5093828;28;20436;-81
2022/07/10 08:48:10;;;;;;;0.90;0.70;;;25.20;65.50;;;;;;5093663;28;20566;-85
2022/07/10 08:50:43;;;;;;;1.00;0.70;;;25.20;65.50;;;;;;5095631;28;20440;-79
2022/07/10 08:53:14;;;;;;;0.90;0.70;;;25.20;65.50;;;;;;5094299;28;20519;-80
2022/07/10 08:55:42;;;;;;;3.37;0.80;;;25.20;65.50;;;;;;5094149;28;20467;-80
2022/07/10 08:58:11;;;;;;;1.20;0.80;;;25.20;65.50;;;;;;5093585;28;20455;-80
2022/07/10 09:00:37;;;;;;;0.97;0.80;;;25.20;65.50;;;;;;5093452;28;20998;-90
2022/07/10 09:03:06;;;;;;;0.90;0.70;;;25.20;65.50;;;;;;5093521;28;20432;-81
2022/07/10 09:05:32;;;;;;;1.00;0.70;;;25.20;65.60;;;;;;5093604;28;20443;-90
2022/07/10 09:07:59;;;;;;;1.47;0.80;;;25.20;65.60;;;;;;5093420;28;20479;-81
2022/07/10 09:10:28;;;;;;;1.20;0.80;;;25.20;65.60;;;;;;5093417;28;20527;-80
2022/07/10 09:12:57;;;;;;;1.10;1.00;;;25.20;65.60;;;;;;5093474;28;20523;-81
2022/07/10 09:15:25;;;;;;;1.00;0.80;;;25.20;65.70;;;;;;5093415;28;20531;-90
2022/07/10 09:17:54;;;;;;;1.10;0.90;;;25.20;66.50;;;;;;5093538;28;20440;-81
2022/07/10 09:20:33;;;;;;;0.90;0.67;;;25.20;65.70;;;;;;5093421;28;20926;-89
2022/07/10 09:23:10;;;;;;;1.20;0.70;;;25.20;66.50;;;;;;5093154;28;20450;-81
2022/07/10 09:25:37;;;;;;;0.90;0.60;;;25.20;65.70;;;;;;5093388;28;20439;-81
2022/07/10 09:28:08;;;;;;;1.03;0.80;;;25.20;65.80;;;;;;5093050;28;20574;-81
2022/07/10 09:30:39;;;;;;;1.13;0.73;;;25.20;65.70;;;;;;5093219;28;20480;-81
2022/07/10 09:33:29;;;;;;;1.00;0.70;;;25.20;65.80;;;;;;5093294;28;20436;-90
2022/07/10 09:36:08;;;;;;;1.27;0.93;;;25.20;65.70;;;;;;5093272;28;20479;-80
2022/07/10 09:38:57;;;;;;;1.10;0.80;;;25.20;65.80;;;;;;5093345;28;20444;-91
2022/07/10 09:41:26;;;;;;;1.00;0.70;;;25.20;65.80;;;;;;5093035;28;20615;-90
2022/07/10 09:43:56;;;;;;;1.10;0.80;;;25.20;65.90;;;;;;5093240;28;20535;-90
2022/07/10 09:46:24;;;;;;;1.00;0.80;;;25.20;65.90;;;;;;5093102;28;20436;-81
2022/07/10 09:49:03;;;;;;;1.20;0.80;;;25.20;65.90;;;;;;5093368;28;20800;-80
2022/07/10 09:51:32;;;;;;;1.00;0.80;;;25.20;65.90;;;;;;5093210;28;20497;-81
2022/07/10 09:54:02;;;;;;;1.20;0.80;;;25.20;65.90;;;;;;5093076;28;20432;-81
2022/07/10 09:56:34;;;;;;;1.10;0.90;;;25.20;65.90;;;;;;5093069;28;20470;-82
2022/07/10 09:59:09;;;;;;;1.10;0.70;;;25.20;65.90;;;;;;5092922;28;20487;-90
2022/07/10 10:01:37;;;;;;;1.10;0.80;;;25.20;65.90;;;;;;5092667;28;20475;-81
2022/07/10 10:04:05;;;;;;;0.90;0.60;;;25.20;65.90;;;;;;5095695;28;20451;-81
2022/07/10 10:06:34;;;;;;;0.90;0.70;;;25.20;65.90;;;;;;5096598;28;20507;-82
2022/07/10 10:09:06;;;;;;;1.10;0.80;;;25.20;65.90;;;;;;5096760;28;20518;-90
2022/07/10 10:11:35;;;;;;;1.00;0.80;;;25.20;65.90;;;;;;5096676;28;20791;-81
2022/07/10 10:14:03;;;;;;;1.03;0.77;;;25.20;66.00;;;;;;5096528;28;20995;-90
2022/07/10 10:16:30;;;;;;;1.10;0.80;;;25.20;66.00;;;;;;5096616;28;20483;-81
2022/07/10 10:21:42;;;;;;;1.00;0.83;;;25.20;66.00;;;;;;5097348;28;20424;-90
2022/07/10 10:24:09;;;;;;;1.07;0.87;;;25.20;67.00;;;;;;5096693;28;20432;-81
2022/07/10 10:26:36;;;;;;;1.40;1.00;;;25.20;66.10;;;;;;5096095;28;20443;-81
2022/07/10 10:29:06;;;;;;;1.00;0.80;;;25.20;66.00;;;;;;5096338;28;20464;-81
2022/07/10 10:31:34;;;;;;;1.07;0.80;;;25.20;66.00;;;;;;5096141;28;20442;-82
2022/07/10 10:34:01;;;;;;;1.43;0.87;;;25.20;66.10;;;;;;5096174;28;20440;-81
2022/07/10 10:36:47;;;;;;;1.00;0.80;;;25.20;66.10;;;;;;5096142;28;20970;-80
2022/07/10 10:39:19;;;;;;;1.00;0.83;;;25.20;66.10;;;;;;5096423;28;20467;-80
2022/07/10 10:41:52;;;;;;;1.20;0.80;;;25.20;66.10;;;;;;5095902;28;20497;-88
2022/07/10 10:44:25;;;;;;;1.67;1.00;;;25.20;66.10;;;;;;5095966;28;20440;-80
2022/07/10 10:47:04;;;;;;;1.00;0.90;;;25.20;66.10;;;;;;5095742;28;20961;-80
2022/07/10 10:49:59;;;;;;;1.17;1.00;;;25.20;66.10;;;;;;5096226;28;20813;-81
2022/07/10 10:52:26;;;;;;;1.30;1.00;;;25.20;66.10;;;;;;5096489;28;20527;-90
2022/07/10 10:55:11;;;;;;;1.00;0.80;;;25.20;66.20;;;;;;5100921;28;20439;-90
2022/07/10 10:57:48;;;;;;;0.90;0.80;;;25.20;66.10;;;;;;5101158;28;20502;-81
2022/07/10 11:00:36;;;;;;;0.90;0.70;;;25.20;66.20;;;;;;5107681;28;20523;-83
2022/07/10 11:03:18;;;;;;;1.30;0.70;;;25.20;66.20;;;;;;5103622;28;20438;-81
2022/07/10 11:05:46;;;;;;;1.00;0.80;;;25.20;66.20;;;;;;5096864;28;20447;-80
2022/07/10 11:08:14;;;;;;;1.10;0.90;;;25.20;66.30;;;;;;5095597;28;20578;-91
2022/07/10 11:10:42;;;;;;;1.00;0.77;;;25.10;66.20;;;;;;5095874;28;20479;-91
2022/07/10 11:13:10;;;;;;;1.20;0.80;;;25.20;66.30;;;;;;5095499;28;20452;-89
2022/07/10 11:15:41;;;;;;;1.00;0.70;;;25.20;66.30;;;;;;5095228;28;20444;-81
2022/07/10 11:18:10;;;;;;;2.07;0.80;;;25.20;66.30;;;;;;5095360;28;20801;-84
2022/07/10 11:20:38;;;;;;;1.30;0.90;;;25.20;66.30;;;;;;5095122;28;20535;-81
2022/07/10 11:23:25;;;;;;;1.00;0.70;;;25.20;66.20;;;;;;5095218;28;20447;-91
2022/07/10 11:26:01;;;;;;;0.90;0.73;;;25.20;66.20;;;;;;5095384;28;20523;-81
2022/07/10 11:28:53;;;;;;;0.93;0.70;;;25.20;66.30;;;;;;5095014;28;20488;-82
2022/07/10 11:31:23;;;;;;;1.30;1.00;;;25.20;66.30;;;;;;5095007;28;20441;-81
2022/07/10 11:33:51;;;;;;;1.00;0.73;;;25.20;66.30;;;;;;5095336;28;20428;-81
2022/07/10 11:36:19;;;;;;;1.00;0.80;;;25.20;66.30;;;;;;5094903;28;20534;-81
2022/07/10 11:38:47;;;;;;;1.10;0.80;;;25.20;66.30;;;;;;5094989;28;20440;-81
2022/07/10 11:41:16;;;;;;;1.00;0.80;;;25.20;66.30;;;;;;5094908;28;20531;-81
2022/07/10 11:43:50;;;;;;;1.00;0.80;;;25.20;66.30;;;;;;5094876;28;20486;-81
2022/07/10 11:46:17;;;;;;;1.50;1.00;;;25.20;66.30;;;;;;5094900;28;20515;-82
2022/07/10 11:48:46;;;;;;;1.10;0.83;;;25.20;66.40;;;;;;5094583;28;20479;-91
2022/07/10 11:51:22;;;;;;;1.00;0.80;;;25.20;66.30;;;;;;5094556;28;20892;-91
2022/07/10 11:53:56;;;;;;;1.10;0.90;;;25.20;66.30;;;;;;5094707;28;20450;-82
2022/07/10 11:56:23;;;;;;;1.00;0.90;;;25.20;66.40;;;;;;5094439;28;20440;-81
2022/07/10 11:58:58;;;;;;;1.10;0.80;;;25.20;66.40;;;;;;5094195;28;20574;-81
2022/07/10 12:01:25;;;;;;;0.90;0.70;;;25.20;66.40;;;;;;5094479;28;20446;-81
2022/07/10 12:04:02;;;;;;;1.20;0.90;;;25.20;66.40;;;;;;5094490;28;20530;-81
2022/07/10 12:06:30;;;;;;;1.20;1.00;;;25.20;66.40;;;;;;5094435;28;20796;-81
2022/07/10 12:08:57;;;;;;;1.00;0.80;;;25.20;66.40;;;;;;5094502;28;20515;-90
2022/07/10 12:11:24;;;;;;;1.20;1.00;;;25.20;66.50;;;;;;5094376;28;20928;-81
2022/07/10 12:13:54;;;;;;;0.97;0.80;;;25.20;66.50;;;;;;5094411;28;20450;-81
2022/07/10 12:16:22;;;;;;;1.40;0.80;;;25.20;66.40;;;;;;5094311;28;20440;-81
2022/07/10 12:18:49;;;;;;;1.10;0.90;;;25.20;66.50;;;;;;5094392;28;20434;-81
2022/07/10 12:21:18;;;;;;;1.20;0.87;;;25.20;66.50;;;;;;5094146;28;20440;-81
2022/07/10 12:23:46;;;;;;;1.00;0.80;;;25.20;66.40;;;;;;5094173;28;20463;-81
2022/07/10 12:26:14;;;;;;;1.10;0.83;;;25.20;66.40;;;;;;5093896;28;20923;-81
2022/07/10 12:28:54;;;;;;;1.00;0.80;;;25.20;67.30;;;;;;5094224;28;20499;-80
2022/07/10 12:31:26;;;;;;;1.10;0.90;;;25.20;66.40;;;;;;5094097;28;20518;-80
2022/07/10 12:33:57;;;;;;;1.20;1.10;;;25.20;66.60;;;;;;5093940;28;20444;-80
2022/07/10 12:36:26;;;;;;;0.90;0.70;;;25.20;66.50;;;;;;5094022;28;20468;-80
2022/07/10 12:38:58;;;;;;;1.10;0.87;;;25.20;66.50;;;;;;5094246;28;20431;-83
2022/07/10 12:41:25;;;;;;;1.00;0.80;;;25.20;66.50;;;;;;5094102;28;20798;-80
2022/07/10 12:43:53;;;;;;;1.13;0.70;;;25.20;66.50;;;;;;5093822;28;20436;-79
2022/07/10 12:46:22;;;;;;;1.30;0.90;;;25.20;66.50;;;;;;5094787;28;20547;-80
2022/07/10 12:49:06;;;;;;;1.20;0.80;;;25.20;66.40;;;;;;5094003;28;20907;-81
2022/07/10 12:51:35;;;;;;;1.23;1.00;;;25.30;66.50;;;;;;5094580;28;20451;-82
2022/07/10 12:54:02;;;;;;;0.90;0.80;;;25.20;66.50;;;;;;5094074;28;20534;-81
2022/07/10 12:56:35;;;;;;;1.20;1.10;;;25.20;66.60;;;;;;5093758;28;20507;-82
2022/07/10 12:59:04;;;;;;;1.13;0.80;;;25.20;66.50;;;;;;5093377;28;20468;-81
2022/07/10 13:01:40;;;;;;;1.00;0.80;;;25.20;66.50;;;;;;5093435;28;20486;-81
2022/07/10 13:04:08;;;;;;;1.10;0.80;;;25.20;66.50;;;;;;5093725;28;20443;-90
2022/07/10 13:06:38;;;;;;;1.00;0.80;;;25.20;66.50;;;;;;5093822;28;20440;-81
2022/07/10 13:09:19;;;;;;;0.97;0.70;;;25.20;66.40;;;;;;5094080;28;20525;-86
2022/07/10 13:11:46;;;;;;;1.00;0.80;;;25.30;66.40;;;;;;5093527;28;20447;-90